Time;durP1;ratioP1;P1;durP2;ratioP2;P2;SDS_P1;SDS_P2;PMS_P1;PMS_P2;Temp;Humidity;BMP_temperature;BMP_pressure;BME280_temperature;BME280_humidity;BME280_pressure;Samples;Min_cycle;Max_cycle;Signal;HPM_P1;HPM_P2
2024/02/09 00:00:40;;;;;;;2.30;1.80;;;;;;;8.00;62.92;100203.55;105163;1260;59707;-63
2024/02/09 00:03:10;;;;;;;3.10;2.20;;;;;;;8.00;62.66;100203.89;105240;1262;59679;-61
2024/02/09 00:08:57;;;;;;;3.20;1.80;;;;;;;8.02;62.77;100202.84;102466;1294;600162;-62
2024/02/09 00:11:28;;;;;;;2.70;2.00;;;;;;;7.98;62.54;100196.41;104726;1269;59689;-62
2024/02/09 00:13:56;;;;;;;3.90;2.00;;;;;;;7.93;62.57;100195.73;104693;1270;59559;-61
2024/02/09 00:16:24;;;;;;;2.20;1.70;;;;;;;7.91;62.56;100196.10;104644;1272;71691;-61
2024/02/09 00:18:52;;;;;;;3.10;1.70;;;;;;;7.92;62.65;100195.90;104677;1269;71581;-61
2024/02/09 00:21:20;;;;;;;2.20;1.80;;;;;;;7.92;62.65;100194.16;104585;1267;71429;-61
2024/02/09 00:23:48;;;;;;;2.10;1.70;;;;;;;7.89;62.53;100191.91;105044;1260;279886;-61
2024/02/09 00:26:16;;;;;;;3.70;1.90;;;;;;;7.86;62.49;100187.39;104884;1257;59586;-61
2024/02/09 00:28:43;;;;;;;5.10;2.40;;;;;;;7.84;62.71;100180.75;105198;1258;71006;-61
2024/02/09 00:31:11;;;;;;;2.90;1.60;;;;;;;7.87;62.82;100177.61;105162;1261;71579;-61
2024/02/09 00:33:40;;;;;;;2.90;1.80;;;;;;;7.87;62.66;100169.40;105114;1261;72736;-61
2024/02/09 00:36:08;;;;;;;2.50;1.60;;;;;;;7.86;62.85;100162.77;105169;1257;59694;-62
2024/02/09 00:38:37;;;;;;;2.70;1.50;;;;;;;7.90;62.90;100158.55;105099;1261;59806;-62
2024/02/09 00:41:07;;;;;;;2.50;1.80;;;;;;;7.91;62.95;100155.40;104821;1266;73133;-60
2024/02/09 00:43:35;;;;;;;3.50;2.00;;;;;;;7.95;63.02;100150.13;105129;1262;73452;-61
2024/02/09 00:46:03;;;;;;;2.50;1.60;;;;;;;7.96;62.69;100145.94;105029;1263;72748;-58
2024/02/09 00:48:31;;;;;;;4.20;2.20;;;;;;;7.95;62.99;100134.77;105049;1262;60507;-61
2024/02/09 00:50:59;;;;;;;2.50;1.70;;;;;;;8.01;63.03;100136.65;105141;1257;59818;-61
2024/02/09 00:53:27;;;;;;;2.80;1.90;;;;;;;8.05;62.85;100130.86;105211;1262;73076;-61
2024/02/09 00:55:54;;;;;;;2.40;1.90;;;;;;;8.06;62.65;100140.45;104919;1272;72522;-59
2024/02/09 00:58:22;;;;;;;2.00;1.80;;;;;;;8.09;62.67;100135.01;105038;1263;72731;-60
2024/02/09 01:00:50;;;;;;;2.60;1.80;;;;;;;8.17;62.53;100137.58;105132;1263;59663;-61
2024/02/09 01:03:20;;;;;;;3.70;2.30;;;;;;;8.21;62.30;100130.38;105089;1260;59701;-61
2024/02/09 01:05:50;;;;;;;2.90;1.90;;;;;;;8.25;62.36;100131.23;105141;1258;71871;-61
2024/02/09 01:08:18;;;;;;;3.60;2.00;;;;;;;8.31;62.26;100137.64;104917;1261;72267;-62
2024/02/09 01:10:46;;;;;;;4.70;2.10;;;;;;;8.34;62.28;100139.17;104973;1260;71620;-62
2024/02/09 02:44:49;;;;;;;8.40;5.20;;;;;;;9.51;62.19;100043.91;105437;1257;72848;-61
2024/02/09 02:47:18;;;;;;;6.40;4.70;;;;;;;9.54;62.25;100043.70;105444;1257;71546;-62
2024/02/09 03:06:27;;;;;;;11.20;6.60;;;;;;;9.48;62.39;100025.39;105538;1257;61322;-60
2024/02/09 03:09:14;;;;;;;8.60;6.40;;;;;;;9.44;62.48;100027.39;105468;1254;71834;-61
2024/02/09 03:11:45;;;;;;;9.10;6.90;;;;;;;9.42;62.62;100022.33;105432;1255;71602;-63
2024/02/09 03:14:13;;;;;;;12.70;7.20;;;;;;;9.43;62.62;100024.94;105472;1257;72733;-61
2024/02/09 03:16:41;;;;;;;9.90;6.80;;;;;;;9.44;62.79;100028.08;105413;1257;59596;-61
2024/02/09 03:19:08;;;;;;;12.10;7.80;;;;;;;9.47;62.90;100019.27;105448;1258;60145;-61
2024/02/09 03:21:36;;;;;;;11.90;7.70;;;;;;;9.50;62.89;100017.14;105393;1257;72503;-61
2024/02/09 03:24:06;;;;;;;11.80;7.80;;;;;;;9.49;62.78;100020.30;105222;1260;71583;-62
2024/02/09 03:26:34;;;;;;;12.40;7.80;;;;;;;9.48;63.02;100013.84;105460;1257;74415;-65
2024/02/09 03:29:02;;;;;;;8.60;7.10;;;;;;;9.47;63.00;100015.25;105430;1254;60472;-61
2024/02/09 03:31:31;;;;;;;11.50;7.70;;;;;;;9.48;63.13;100014.02;105209;1254;59766;-62
2024/02/09 03:33:59;;;;;;;10.30;8.00;;;;;;;9.48;63.02;100007.34;105623;1257;72572;-63
2024/02/09 03:36:28;;;;;;;10.20;7.80;;;;;;;9.47;63.02;99999.83;105220;1254;72836;-64
2024/02/09 03:38:56;;;;;;;12.10;8.10;;;;;;;9.47;63.31;100002.30;105456;1257;71443;-62
2024/02/09 03:41:25;;;;;;;10.80;7.80;;;;;;;9.49;63.34;100007.86;105454;1254;60177;-63
2024/02/09 03:43:53;;;;;;;11.00;7.90;;;;;;;9.53;63.42;100018.67;105551;1257;59759;-63
2024/02/09 03:46:20;;;;;;;11.50;8.50;;;;;;;9.57;63.56;100025.44;105537;1257;71509;-63
2024/02/09 03:48:48;;;;;;;11.30;8.10;;;;;;;9.65;63.69;100019.35;105514;1254;71774;-63
2024/02/09 03:51:16;;;;;;;10.80;8.00;;;;;;;9.73;63.67;100009.07;105291;1254;72890;-63
2024/02/09 03:53:44;;;;;;;11.90;8.40;;;;;;;9.81;63.82;100004.73;105276;1260;59705;-63
2024/02/09 03:56:12;;;;;;;11.00;7.70;;;;;;;9.88;63.73;100002.52;105474;1254;59571;-63
2024/02/09 03:58:42;;;;;;;12.80;8.80;;;;;;;9.92;63.64;100000.52;105660;1254;71973;-63
2024/02/09 04:01:11;;;;;;;11.40;8.60;;;;;;;9.96;63.67;99995.20;105556;1257;71583;-63
2024/02/09 04:03:39;;;;;;;10.90;8.00;;;;;;;10.00;63.54;99988.11;105536;1254;71710;-60
2024/02/09 04:06:07;;;;;;;11.40;8.10;;;;;;;10.02;63.42;99978.08;105501;1254;61175;-63
2024/02/09 04:08:35;;;;;;;12.00;8.80;;;;;;;10.04;63.42;99979.10;105543;1254;59733;-65
2024/02/09 04:11:03;;;;;;;10.50;8.10;;;;;;;10.06;63.45;99978.90;105501;1254;71852;-60
2024/02/09 04:13:32;;;;;;;11.60;8.00;;;;;;;10.08;63.35;99978.33;105271;1260;72864;-60
2024/02/09 04:16:01;;;;;;;13.30;8.40;;;;;;;10.08;63.26;99989.73;105491;1256;72683;-60
2024/02/09 04:18:29;;;;;;;8.80;7.70;;;;;;;10.06;63.30;99989.41;105572;1257;59668;-60
2024/02/09 04:20:57;;;;;;;13.70;8.80;;;;;;;10.06;63.29;99983.11;105518;1257;59763;-61
2024/02/09 04:23:25;;;;;;;11.90;8.40;;;;;;;10.01;63.26;99981.44;105619;1257;73124;-62
2024/02/09 04:25:53;;;;;;;11.90;8.30;;;;;;;9.99;63.42;99984.09;105329;1254;71368;-62
2024/02/09 04:28:21;;;;;;;12.60;8.70;;;;;;;9.99;63.52;99976.39;105503;1257;72742;-62
2024/02/09 04:30:48;;;;;;;11.50;8.20;;;;;;;9.99;63.47;99976.20;105462;1253;60534;-61
2024/02/09 04:33:16;;;;;;;13.20;7.60;;;;;;;9.99;63.55;99970.08;105170;1260;60429;-64
2024/02/09 04:35:44;;;;;;;11.00;7.90;;;;;;;10.00;63.73;99967.27;105469;1257;73973;-61
2024/02/09 04:38:12;;;;;;;11.80;8.40;;;;;;;10.01;63.70;99963.74;105457;1257;71642;-63
2024/02/09 04:40:40;;;;;;;11.90;8.30;;;;;;;10.04;63.73;99967.02;105506;1258;72776;-62
2024/02/09 04:43:08;;;;;;;11.00;8.50;;;;;;;10.04;63.67;99961.76;105448;1257;60403;-59
2024/02/09 04:45:35;;;;;;;11.80;8.10;;;;;;;10.01;63.62;99959.17;105148;1254;60361;-62
2024/02/09 04:48:04;;;;;;;17.80;9.10;;;;;;;10.00;63.79;99952.54;105611;1255;72054;-60
2024/02/09 04:50:33;;;;;;;12.20;8.70;;;;;;;10.00;63.81;99945.70;105219;1254;72268;-62
2024/02/09 04:53:00;;;;;;;13.40;8.60;;;;;;;10.00;63.88;99949.73;105574;1254;70021;-61
2024/02/09 04:55:28;;;;;;;12.00;8.30;;;;;;;9.99;63.96;99952.55;105132;1254;60573;-63
2024/02/09 04:57:56;;;;;;;15.40;9.60;;;;;;;9.97;64.01;99951.20;105550;1256;60639;-59
2024/02/09 05:00:24;;;;;;;12.30;9.10;;;;;;;9.93;64.12;99947.95;105497;1257;73919;-58
2024/02/09 05:02:52;;;;;;;12.30;9.30;;;;;;;9.90;64.40;99942.58;105500;1255;72997;-59
2024/02/09 05:05:22;;;;;;;13.60;9.00;;;;;;;9.89;65.45;99946.96;105473;1254;71242;-59
2024/02/09 05:07:51;;;;;;;15.50;9.50;;;;;;;9.87;65.86;99948.58;105453;1254;61760;-59
2024/02/09 05:10:20;;;;;;;15.60;9.00;;;;;;;9.84;66.06;99941.80;105451;1252;60651;-58
2024/02/09 05:12:48;;;;;;;14.80;9.90;;;;;;;9.80;66.18;99942.76;105200;1260;72838;-58
2024/02/09 05:15:17;;;;;;;17.60;10.80;;;;;;;9.76;66.26;99951.05;105395;1257;73510;-58
2024/02/09 05:17:45;;;;;;;13.40;9.90;;;;;;;9.77;66.43;99965.90;105602;1257;73366;-58
2024/02/09 05:20:13;;;;;;;15.30;9.80;;;;;;;9.83;66.66;99970.71;105518;1257;61098;-60
2024/02/09 05:22:44;;;;;;;13.70;10.60;;;;;;;9.91;66.48;99965.16;105526;1254;60441;-57
2024/02/09 05:25:13;;;;;;;14.10;9.80;;;;;;;9.93;66.36;99962.65;105619;1254;72640;-59
2024/02/09 05:27:46;;;;;;;14.90;9.80;;;;;;;9.95;66.33;99962.98;105593;1257;72907;-60
2024/02/09 05:30:14;;;;;;;15.80;9.40;;;;;;;9.97;66.36;99962.57;105530;1259;71642;-61
2024/02/09 05:32:42;;;;;;;11.80;8.80;;;;;;;9.99;66.18;99957.11;105188;1258;60438;-57
2024/02/09 05:35:10;;;;;;;13.50;9.10;;;;;;;10.06;66.31;99962.44;105522;1252;60584;-57
2024/02/09 05:37:38;;;;;;;14.60;10.10;;;;;;;10.12;66.07;99966.01;105633;1254;72593;-59
2024/02/09 05:40:09;;;;;;;17.20;10.30;;;;;;;10.14;65.92;99972.08;105518;1254;71590;-60
2024/02/09 05:42:37;;;;;;;13.90;9.50;;;;;;;10.12;65.81;99975.10;105562;1253;71510;-60
2024/02/09 05:45:05;;;;;;;15.40;9.70;;;;;;;10.10;65.89;99976.02;105595;1254;61189;-60
2024/02/09 05:47:33;;;;;;;14.80;10.20;;;;;;;10.10;65.79;99972.52;105261;1260;60398;-60
2024/02/09 05:50:01;;;;;;;17.30;11.10;;;;;;;10.08;65.82;99974.99;105520;1257;72648;-60
2024/02/09 05:52:29;;;;;;;17.00;9.80;;;;;;;10.02;65.73;99967.40;105480;1253;72341;-59
2024/02/09 05:54:58;;;;;;;15.60;9.50;;;;;;;9.96;65.79;99962.42;105477;1254;74369;-58
2024/02/09 05:57:27;;;;;;;16.70;9.90;;;;;;;9.94;65.86;99961.23;105493;1252;60536;-57
2024/02/09 05:59:56;;;;;;;15.50;9.00;;;;;;;9.92;65.99;99957.78;105495;1253;60466;-59
2024/02/09 06:02:23;;;;;;;14.10;8.70;;;;;;;9.91;66.03;99963.23;105318;1254;73018;-59
2024/02/09 06:04:51;;;;;;;16.60;9.00;;;;;;;9.90;66.13;99967.80;105140;1254;73406;-60
2024/02/09 06:07:19;;;;;;;18.30;10.00;;;;;;;9.89;66.19;99970.79;105631;1255;73373;-62
2024/02/09 06:09:47;;;;;;;17.10;8.80;;;;;;;9.91;66.40;99973.39;105571;1253;60653;-60
2024/02/09 06:12:15;;;;;;;14.00;8.20;;;;;;;9.92;66.36;99975.98;105322;1259;60665;-58
2024/02/09 06:14:43;;;;;;;12.50;9.10;;;;;;;9.94;66.47;99978.05;105169;1254;72632;-58
2024/02/09 06:17:13;;;;;;;14.00;8.70;;;;;;;9.95;66.49;99977.17;105283;1259;72169;-58
2024/02/09 06:19:40;;;;;;;13.90;8.50;;;;;;;9.94;66.52;99983.14;105592;1254;71724;-59
2024/02/09 06:22:10;;;;;;;11.70;7.90;;;;;;;9.94;66.51;99986.80;105583;1254;60481;-57
2024/02/09 06:24:39;;;;;;;12.30;8.80;;;;;;;9.95;66.50;99992.75;105604;1253;60522;-61
2024/02/09 06:27:06;;;;;;;10.20;7.90;;;;;;;9.95;66.51;99998.52;105714;1251;72276;-60
2024/02/09 06:29:37;;;;;;;9.50;7.70;;;;;;;9.93;66.57;100002.77;105357;1257;72403;-61
2024/02/09 06:32:06;;;;;;;11.60;8.60;;;;;;;9.92;66.62;100005.60;105419;1257;71470;-61
2024/02/09 06:34:33;;;;;;;8.80;6.90;;;;;;;9.93;66.71;100006.81;105258;1260;60447;-58
2024/02/09 06:37:01;;;;;;;10.50;8.30;;;;;;;9.93;66.73;100004.02;105199;1260;60864;-59
2024/02/09 06:39:29;;;;;;;10.70;7.90;;;;;;;9.93;66.81;99995.95;105356;1257;72755;-58
2024/02/09 06:41:57;;;;;;;11.70;7.20;;;;;;;9.94;66.83;99991.03;105178;1253;74461;-59
2024/02/09 06:44:25;;;;;;;11.90;8.70;;;;;;;9.95;67.12;99983.46;105399;1254;72118;-60
2024/02/09 06:46:54;;;;;;;9.70;7.60;;;;;;;9.98;67.24;99985.00;105363;1253;61975;-60
2024/02/09 06:49:28;;;;;;;15.10;7.70;;;;;;;10.02;67.15;99990.19;105382;1253;60457;-59
2024/02/09 06:51:56;;;;;;;8.80;6.60;;;;;;;10.06;67.14;99985.91;105377;1257;72544;-61
2024/02/09 06:54:26;;;;;;;9.20;6.70;;;;;;;10.09;66.98;99991.45;105336;1257;71442;-60
2024/02/09 06:56:55;;;;;;;10.30;6.40;;;;;;;10.12;66.83;99983.52;105411;1254;71188;-59
2024/02/09 06:59:23;;;;;;;9.40;6.70;;;;;;;10.15;66.64;99989.95;105444;1253;61632;-59
2024/02/09 07:01:51;;;;;;;10.80;6.60;;;;;;;10.17;66.36;99992.54;105336;1253;60452;-59
2024/02/09 07:04:19;;;;;;;7.00;5.80;;;;;;;10.20;65.97;99997.58;105244;1260;73808;-59
2024/02/09 07:06:48;;;;;;;6.10;5.50;;;;;;;10.21;65.81;99994.91;105502;1253;72930;-62
2024/02/09 07:09:18;;;;;;;7.10;5.50;;;;;;;10.22;65.51;99994.90;105428;1256;71813;-60
2024/02/09 07:12:04;;;;;;;7.00;6.10;;;;;;;10.24;65.27;99992.23;105311;1253;60533;-59
2024/02/09 07:14:32;;;;;;;7.80;5.30;;;;;;;10.26;65.17;99994.13;105433;1253;60642;-58
2024/02/09 07:17:00;;;;;;;8.50;6.40;;;;;;;10.28;65.01;99992.52;105268;1259;72774;-60
2024/02/09 07:19:28;;;;;;;10.00;5.50;;;;;;;10.31;64.88;99991.92;105201;1253;75162;-59
2024/02/09 07:21:56;;;;;;;7.70;6.00;;;;;;;10.33;64.68;99989.98;105506;1253;73430;-58
2024/02/09 07:24:25;;;;;;;6.70;5.50;;;;;;;10.35;64.53;99986.79;105141;1253;60489;-58
2024/02/09 07:26:53;;;;;;;6.30;5.20;;;;;;;10.38;64.43;99982.70;105393;1253;60834;-62
2024/02/09 07:29:24;;;;;;;7.20;5.10;;;;;;;10.38;64.36;99978.48;105438;1257;73304;-61
2024/02/09 07:31:52;;;;;;;5.40;4.70;;;;;;;10.41;64.07;99969.86;105451;1257;71485;-61
2024/02/09 07:34:20;;;;;;;5.30;4.50;;;;;;;10.42;63.89;99960.90;105473;1257;72749;-58
2024/02/09 07:36:48;;;;;;;4.70;3.90;;;;;;;10.44;63.81;99955.42;105469;1256;60376;-60
2024/02/09 07:39:16;;;;;;;5.40;4.30;;;;;;;10.47;63.58;99955.54;105524;1253;60477;-59
2024/02/09 07:41:45;;;;;;;5.60;4.10;;;;;;;10.48;63.36;99956.56;105386;1253;72784;-58
2024/02/09 07:44:13;;;;;;;4.30;3.50;;;;;;;10.48;63.23;99949.20;105476;1253;71623;-58
2024/02/09 07:46:41;;;;;;;3.80;3.40;;;;;;;10.49;63.18;99942.70;105551;1253;72778;-57
2024/02/09 07:49:09;;;;;;;4.40;4.00;;;;;;;10.47;62.89;99938.52;105492;1253;60419;-58
2024/02/09 07:51:36;;;;;;;4.90;4.00;;;;;;;10.46;62.80;99935.05;105373;1253;60829;-59
2024/02/09 07:54:05;;;;;;;5.60;3.60;;;;;;;10.44;62.62;99927.18;105549;1253;72892;-57
2024/02/09 07:56:33;;;;;;;4.70;3.80;;;;;;;10.42;62.52;99927.92;105521;1253;71786;-58
2024/02/09 07:59:01;;;;;;;4.70;3.90;;;;;;;10.42;62.51;99948.27;105523;1257;71383;-58
2024/02/09 08:01:29;;;;;;;4.20;3.40;;;;;;;10.42;62.42;99955.46;105230;1259;60613;-58
2024/02/09 08:03:58;;;;;;;5.30;4.70;;;;;;;10.43;62.36;99953.86;105452;1253;60552;-58
2024/02/09 08:06:27;;;;;;;4.60;3.60;;;;;;;10.44;62.48;99948.59;105636;1257;74112;-59
2024/02/09 08:08:55;;;;;;;4.00;3.20;;;;;;;10.46;62.38;99942.05;105667;1253;72602;-59
2024/02/09 08:11:23;;;;;;;4.10;3.70;;;;;;;10.49;62.35;99939.52;105252;1254;73322;-57
2024/02/09 08:13:51;;;;;;;4.10;3.70;;;;;;;10.52;62.39;99935.95;105559;1254;60646;-59
2024/02/09 08:16:22;;;;;;;4.60;3.40;;;;;;;10.57;62.50;99923.06;105276;1259;61790;-56
2024/02/09 08:18:53;;;;;;;5.00;4.10;;;;;;;10.64;62.65;99903.27;105544;1254;73133;-58
2024/02/09 08:21:22;;;;;;;7.40;4.60;;;;;;;10.75;62.82;99886.70;105532;1256;73459;-60
2024/02/09 08:23:49;;;;;;;6.20;4.50;;;;;;;10.85;62.71;99887.02;105216;1259;73236;-58
2024/02/09 08:26:18;;;;;;;8.30;5.20;;;;;;;10.93;62.49;99897.16;105228;1253;60885;-59
2024/02/09 08:28:47;;;;;;;9.60;6.30;;;;;;;11.01;62.38;99900.84;105568;1254;60678;-58
2024/02/09 08:31:20;;;;;;;9.50;6.40;;;;;;;11.09;62.12;99900.67;105304;1254;72754;-59
2024/02/09 08:33:49;;;;;;;11.90;8.20;;;;;;;11.16;61.92;99886.80;105402;1253;72849;-58
2024/02/09 08:36:21;;;;;;;10.90;8.10;;;;;;;11.24;61.77;99882.91;105486;1253;73929;-57
2024/02/09 08:38:50;;;;;;;12.50;8.50;;;;;;;11.32;61.56;99881.85;105498;1253;60501;-58
2024/02/09 08:41:18;;;;;;;13.30;8.40;;;;;;;11.41;61.19;99882.48;105243;1253;60512;-57
2024/02/09 08:43:47;;;;;;;12.00;9.80;;;;;;;11.50;60.89;99899.49;105509;1257;74589;-57
2024/02/09 08:46:15;;;;;;;14.90;10.00;;;;;;;11.55;60.70;99909.72;105527;1253;72909;-59
2024/02/09 08:48:43;;;;;;;12.40;10.40;;;;;;;11.59;60.43;99924.19;105526;1254;73780;-59
2024/02/09 08:51:10;;;;;;;13.10;9.70;;;;;;;11.63;60.32;99935.34;105608;1253;60533;-58
2024/02/09 08:53:38;;;;;;;14.30;10.80;;;;;;;11.67;60.07;99936.81;105455;1253;60544;-58
2024/02/09 08:56:10;;;;;;;15.30;11.20;;;;;;;11.72;59.85;99939.34;105466;1254;73822;-59
2024/02/09 08:58:38;;;;;;;15.40;10.10;;;;;;;11.74;59.75;99937.87;105239;1253;70953;-59
2024/02/09 09:01:06;;;;;;;15.90;10.40;;;;;;;11.79;59.61;99932.81;105419;1253;73189;-58
2024/02/09 09:03:35;;;;;;;14.50;10.50;;;;;;;11.84;59.40;99937.44;105428;1253;60627;-59
2024/02/09 09:06:04;;;;;;;15.30;11.10;;;;;;;11.89;59.31;99938.02;105531;1254;61059;-59
2024/02/09 09:08:34;;;;;;;14.50;11.40;;;;;;;11.93;59.09;99928.06;105409;1257;73880;-58
2024/02/09 09:11:02;;;;;;;18.90;11.20;;;;;;;12.00;58.97;99920.52;105505;1257;72681;-57
2024/02/09 09:13:30;;;;;;;16.80;11.00;;;;;;;12.07;58.79;99918.23;105360;1253;72572;-57
2024/02/09 09:15:58;;;;;;;13.90;11.00;;;;;;;12.11;58.62;99911.27;105408;1253;60480;-57
2024/02/09 09:18:29;;;;;;;17.50;10.30;;;;;;;12.14;58.28;99914.69;105395;1253;60467;-56
2024/02/09 09:20:57;;;;;;;19.30;12.40;;;;;;;12.17;58.03;99924.28;105401;1257;75409;-57
2024/02/09 09:23:25;;;;;;;15.70;10.40;;;;;;;12.17;57.90;99933.78;105335;1257;72307;-57
2024/02/09 09:25:53;;;;;;;15.00;10.40;;;;;;;12.17;57.79;99933.27;105379;1253;72710;-62
2024/02/09 09:28:21;;;;;;;16.00;11.60;;;;;;;12.18;57.92;99937.97;105219;1253;60624;-63
2024/02/09 09:30:49;;;;;;;18.70;11.20;;;;;;;12.22;57.96;99927.31;105641;1253;60872;-62
2024/02/09 09:33:19;;;;;;;13.20;10.30;;;;;;;12.29;57.75;99922.02;105595;1253;74320;-62
2024/02/09 09:35:47;;;;;;;16.20;10.70;;;;;;;12.35;57.58;99926.95;105384;1257;72574;-63
2024/02/09 09:38:19;;;;;;;19.10;10.80;;;;;;;12.39;57.45;99930.51;105198;1253;73416;-63
2024/02/09 09:40:48;;;;;;;17.10;11.50;;;;;;;12.42;57.28;99923.56;105459;1253;60517;-62
2024/02/09 09:43:17;;;;;;;16.20;12.00;;;;;;;12.46;57.39;99920.84;105561;1257;60543;-62
2024/02/09 09:45:51;;;;;;;13.50;10.80;;;;;;;12.50;57.27;99920.52;105207;1260;73630;-61
2024/02/09 09:48:19;;;;;;;16.80;11.60;;;;;;;12.54;56.97;99922.55;105492;1253;72202;-62
2024/02/09 09:50:47;;;;;;;16.60;11.80;;;;;;;12.54;57.02;99912.66;104908;1257;73579;-62
2024/02/09 09:53:15;;;;;;;16.60;11.20;;;;;;;12.54;56.87;99914.43;105422;1253;60584;-62
2024/02/09 09:55:43;;;;;;;14.80;11.40;;;;;;;12.55;56.90;99914.07;105224;1253;60504;-61
2024/02/09 09:58:11;;;;;;;16.70;11.40;;;;;;;12.56;57.00;99906.45;105426;1254;74815;-61
2024/02/09 10:00:40;;;;;;;15.20;11.10;;;;;;;12.60;56.88;99904.77;105238;1253;73001;-61
2024/02/09 10:03:07;;;;;;;17.80;11.70;;;;;;;12.62;56.74;99900.48;105629;1253;73249;-62
2024/02/09 10:05:35;;;;;;;16.20;12.20;;;;;;;12.62;56.71;99915.08;105525;1253;60552;-62
2024/02/09 10:08:05;;;;;;;16.30;11.40;;;;;;;12.63;56.60;99911.87;105473;1257;60377;-61
2024/02/09 10:10:33;;;;;;;18.60;12.20;;;;;;;12.65;56.59;99909.36;105418;1253;74663;-61
2024/02/09 10:13:11;;;;;;;16.90;11.40;;;;;;;12.66;56.61;99912.13;105361;1252;72310;-61
2024/02/09 10:15:47;;;;;;;18.00;11.80;;;;;;;12.67;56.60;99917.02;105429;1257;71945;-61
2024/02/09 10:18:15;;;;;;;19.90;11.40;;;;;;;12.68;56.57;99915.41;105160;1253;60465;-61
2024/02/09 10:20:46;;;;;;;19.40;11.60;;;;;;;12.70;56.56;99915.17;105451;1254;60405;-61
2024/02/09 10:23:21;;;;;;;14.30;10.80;;;;;;;12.75;56.59;99917.14;105184;1259;72208;-61
2024/02/09 10:25:49;;;;;;;18.60;12.10;;;;;;;12.81;56.48;99930.35;105339;1253;72868;-57
2024/02/09 10:28:18;;;;;;;16.10;10.50;;;;;;;12.89;56.41;99928.89;105409;1253;72227;-57
2024/02/09 10:30:48;;;;;;;16.40;10.90;;;;;;;12.96;56.34;99922.33;105391;1257;60547;-58
2024/02/09 10:33:16;;;;;;;19.30;11.70;;;;;;;13.03;56.12;99926.85;105415;1257;60444;-58
2024/02/09 10:35:44;;;;;;;14.60;10.20;;;;;;;13.10;55.88;99930.33;105403;1257;73912;-63
2024/02/09 10:38:12;;;;;;;16.50;10.40;;;;;;;13.19;55.79;99932.00;105443;1253;73350;-62
2024/02/09 10:40:40;;;;;;;15.60;11.00;;;;;;;13.28;55.62;99928.01;105492;1253;73085;-62
2024/02/09 10:43:08;;;;;;;16.00;10.50;;;;;;;13.39;55.34;99925.58;105389;1253;60534;-62
2024/02/09 10:45:36;;;;;;;15.70;11.10;;;;;;;13.50;55.09;99920.44;105333;1253;60687;-61
2024/02/09 10:48:04;;;;;;;17.70;10.30;;;;;;;13.62;54.86;99911.23;105328;1253;76176;-61
2024/02/09 10:50:32;;;;;;;14.60;10.10;;;;;;;13.77;54.59;99910.21;105280;1253;71739;-62
2024/02/09 10:56:27;;;;;;;18.00;9.60;;;;;;;14.09;54.18;99910.65;103018;1289;600438;-61
2024/02/09 10:58:56;;;;;;;15.00;9.50;;;;;;;14.18;53.85;99905.03;104588;1273;59867;-62
2024/02/09 11:01:24;;;;;;;11.80;8.80;;;;;;;14.27;53.73;99905.59;104626;1269;61276;-61
2024/02/09 11:03:52;;;;;;;15.10;10.30;;;;;;;14.36;53.49;99901.38;104671;1271;72630;-62
2024/02/09 11:06:19;;;;;;;12.60;9.00;;;;;;;14.46;53.32;99905.96;104560;1273;72201;-58
2024/02/09 11:08:47;;;;;;;16.10;8.50;;;;;;;14.55;52.98;99902.09;104551;1267;73070;-62
2024/02/09 11:11:15;;;;;;;15.10;9.50;;;;;;;14.61;52.92;99904.35;104573;1264;268289;-59
2024/02/09 11:13:44;;;;;;;11.70;8.50;;;;;;;14.67;52.57;99905.73;104714;1262;60971;-58
2024/02/09 11:16:12;;;;;;;13.70;8.80;;;;;;;14.69;52.32;99905.81;104658;1269;73046;-60
2024/02/09 11:18:40;;;;;;;15.60;8.80;;;;;;;14.72;52.18;99905.54;104581;1264;72595;-58
2024/02/09 11:21:09;;;;;;;12.90;8.80;;;;;;;14.76;52.10;99905.73;104531;1269;73372;-59
2024/02/09 11:23:42;;;;;;;11.80;8.60;;;;;;;14.80;51.89;99898.14;104679;1267;59760;-62
2024/02/09 11:26:11;;;;;;;12.30;7.70;;;;;;;14.84;51.78;99894.31;104848;1267;60689;-59
2024/02/09 11:28:38;;;;;;;13.80;8.80;;;;;;;14.86;51.59;99897.21;105297;1260;75146;-60
2024/02/09 11:31:07;;;;;;;12.90;8.40;;;;;;;14.90;51.59;99897.91;104980;1258;72166;-62
2024/02/09 11:33:36;;;;;;;12.60;8.10;;;;;;;14.97;51.36;99900.48;104974;1260;72551;-57
2024/02/09 11:36:04;;;;;;;13.90;8.10;;;;;;;15.06;51.33;99898.54;104974;1261;60001;-62
2024/02/09 11:38:33;;;;;;;13.10;7.00;;;;;;;15.15;51.05;99896.61;109038;1256;60799;-62
2024/02/09 11:41:00;;;;;;;12.00;7.70;;;;;;;15.22;50.83;99904.97;109028;1257;73083;-60
2024/02/09 11:43:29;;;;;;;10.80;6.90;;;;;;;15.30;50.62;99906.23;109033;1256;72595;-61
2024/02/09 11:45:57;;;;;;;14.50;7.60;;;;;;;15.41;50.36;99904.90;108935;1257;71754;-60
2024/02/09 11:48:25;;;;;;;11.30;7.20;;;;;;;15.52;50.29;99901.41;108900;1257;59017;-59
2024/02/09 11:50:57;;;;;;;10.90;6.50;;;;;;;15.64;49.98;99896.48;109040;1257;58581;-59
2024/02/09 11:53:25;;;;;;;11.90;7.20;;;;;;;15.76;49.67;99888.95;109051;1256;71968;-59
2024/02/09 11:55:53;;;;;;;10.30;6.60;;;;;;;15.88;49.37;99893.03;109037;1256;71996;-65
2024/02/09 11:58:21;;;;;;;12.20;7.70;;;;;;;16.03;49.08;99892.35;109004;1258;72635;-59
2024/02/09 12:00:50;;;;;;;11.80;6.10;;;;;;;16.23;48.77;99890.05;109018;1256;59213;-58
2024/02/09 12:03:18;;;;;;;10.70;6.60;;;;;;;16.48;48.13;99892.63;109013;1256;60078;-56
2024/02/09 12:05:46;;;;;;;10.80;6.30;;;;;;;16.80;47.71;99884.80;109025;1257;72920;-58
2024/02/09 12:08:18;;;;;;;12.50;6.30;;;;;;;17.15;47.03;99883.65;109012;1257;72114;-58
2024/02/09 12:10:50;;;;;;;12.50;6.10;;;;;;;17.53;46.44;99880.35;109057;1257;71362;-60
2024/02/09 12:13:19;;;;;;;;;;;;;;;17.90;45.37;99880.07;109065;1257;58821;-58
2024/02/09 12:15:47;;;;;;;10.20;6.10;;;;;;;18.23;44.75;99871.64;108875;1257;58756;-59
2024/02/09 12:18:18;;;;;;;8.70;6.30;;;;;;;18.51;43.95;99864.60;108998;1257;71369;-58
2024/02/09 12:20:46;;;;;;;11.40;6.70;;;;;;;18.77;43.38;99854.45;109009;1255;71808;-59
2024/02/09 12:23:14;;;;;;;13.00;6.10;;;;;;;19.02;42.79;99858.90;108984;1257;73528;-58
2024/02/09 12:25:41;;;;;;;10.90;5.70;;;;;;;19.26;42.40;99857.88;109008;1257;59887;-58
2024/02/09 12:28:18;;;;;;;14.10;6.70;;;;;;;19.52;41.88;99858.68;109019;1257;58534;-59
2024/02/09 12:30:46;;;;;;;14.50;6.00;;;;;;;19.80;41.23;99853.31;108868;1257;71785;-58
2024/02/09 12:33:17;;;;;;;7.90;5.70;;;;;;;20.05;40.79;99854.48;109051;1256;73656;-58
2024/02/09 12:35:48;;;;;;;9.10;5.70;;;;;;;20.32;40.33;99856.73;109001;1257;72488;-61
2024/02/09 12:38:20;;;;;;;12.80;6.50;;;;;;;20.55;39.86;99856.52;108986;1257;60235;-62
2024/02/09 12:40:48;;;;;;;12.30;6.30;;;;;;;20.78;39.43;99852.91;109355;1253;58052;-59
2024/02/09 12:43:18;;;;;;;12.80;5.90;;;;;;;20.98;39.12;99854.09;109471;1251;75134;-58
2024/02/09 12:45:46;;;;;;;10.70;6.20;;;;;;;21.20;38.71;99856.94;109454;1250;71618;-57
2024/02/09 12:48:20;;;;;;;8.70;5.70;;;;;;;21.39;38.15;99856.93;109183;1251;72950;-59
2024/02/09 12:50:54;;;;;;;10.00;6.10;;;;;;;21.53;37.78;99857.63;109154;1251;59967;-58
2024/02/09 12:53:24;;;;;;;12.00;5.60;;;;;;;21.62;37.31;99857.54;109342;1252;58538;-59
2024/02/09 12:55:51;;;;;;;9.50;5.40;;;;;;;21.47;36.97;99859.56;109285;1253;71209;-62
2024/02/09 12:58:22;;;;;;;11.50;5.70;;;;;;;21.27;37.41;99861.43;109291;1254;71473;-57
2024/02/09 13:00:52;;;;;;;13.10;5.90;;;;;;;21.30;37.42;99869.67;109287;1253;72553;-60
2024/02/09 13:03:21;;;;;;;10.80;5.40;;;;;;;21.46;37.22;99871.30;109257;1253;61128;-60
2024/02/09 13:05:49;;;;;;;8.20;5.00;;;;;;;21.64;36.99;99873.84;109313;1253;60328;-60
2024/02/09 13:08:17;;;;;;;10.60;4.90;;;;;;;21.82;36.64;99878.52;109095;1254;75124;-60
2024/02/09 13:10:44;;;;;;;8.80;5.20;;;;;;;22.00;36.38;99881.19;109292;1253;73249;-60
2024/02/09 13:13:14;;;;;;;8.60;5.30;;;;;;;22.18;35.85;99887.61;109291;1253;72004;-59
2024/02/09 13:15:42;;;;;;;9.10;4.90;;;;;;;22.34;35.55;99886.71;109026;1257;58780;-61
2024/02/09 13:18:10;;;;;;;8.90;5.90;;;;;;;22.44;35.31;99879.94;109087;1253;61256;-59
2024/02/09 13:20:38;;;;;;;9.90;5.30;;;;;;;22.54;35.05;99879.23;109333;1253;72787;-59